• Join FlightAware (Why Join?)
  • Login
  • US Flag 
05:52PM EDT


 

Airport Tracker/Info


-or-


 

Live Flight TrackerFlight Track Log ✈ BJS542 ✈ 05-May-2013 ✈ KCHO - KLUK

Flight Track Log - Related Links

Times and Time Zones

All times are in EDT time to prevent confusion due to time zone crossing. See the BJS542 flight status page for this flight to view local times or setup timezone preferences in your user account.

Time Position Orientation Groundspeed Altitude Reporting Facility
EDT Latitude Longitude Course Direction KTS MPH feet Rate Location/Type
02:00PM 38.2053 -78.4797 277° West 193 222 6,600  Level Washington Center
02:01PM 38.2136 -78.5700 277° West 220 253 9,400 3,180 Climbing Washington Center
02:02PM 38.2183 -78.7103 272° West 310 357 13,100 4,260 Climbing Washington Center
02:03PM 38.2275 -78.8375 275° West 353 406 18,000 3,480 Climbing Washington Center
02:04PM 38.2344 -78.9647 274° West 365 420 20,000 1,620 Climbing Washington Center
02:05PM 38.2431 -79.0947 275° West 372 428 21,300 1,260 Climbing Washington Center
02:06PM 38.2478 -79.2192 273° West 385 443 22,600 840 Climbing Washington Center
02:07PM 38.2556 -79.3731 274° West 411 473 23,000 600 Climbing Washington Center
02:08PM 38.2756 -79.5247 280° West 434 499 23,900 1,320 Climbing Washington Center
02:09PM 38.2847 -79.6867 274° West 428 493 25,700 1,620 Climbing Washington Center
02:10PM 38.2800 -79.8292 268° West 421 484 27,200 1,500 Climbing Washington Center
02:11PM 38.2744 -79.9822 267° West 421 484 28,700 1,560 Climbing Washington Center
02:12PM 38.2664 -80.1406 266° West 438 504 30,400 1,560 Climbing Washington Center
02:14PM 38.3061 -80.4844 277° West 450 518 34,000 1,020 Climbing Indianapolis Center
02:15PM 38.3322 -80.6383 282° West 448 516 34,000  Level Indianapolis Center
02:16PM 38.3544 -80.7911 281° West 438 504 34,000  Level Indianapolis Center
02:17PM 38.3761 -80.9433 280° West 436 502 34,000  Level Indianapolis Center
02:18PM 38.4025 -81.1292 280° West 441 507 34,000  Level Indianapolis Center
02:19PM 38.4231 -81.2833 280° West 439 505 34,000  Level Indianapolis Center
02:20PM 38.4450 -81.4394 280° West 442 509 34,000  Level Indianapolis Center
02:22PM 38.4755 -81.6291 282° West  Level FlightAware Approximate
02:22PM 38.4886 -81.7544 282° West 444 511 34,000  Level Indianapolis Center
02:23PM 38.5092 -81.9119 280° West 445 512 34,000  Level Indianapolis Center
02:24PM 38.5297 -82.0686 280° West 445 512 34,000 -360 Level Indianapolis Center
02:25PM 38.5497 -82.2258 279° West 448 516 33,300 -1,200 Descending Indianapolis Center
02:26PM 38.5711 -82.3908 279° West 466 536 31,600 -1,740 Descending Indianapolis Center
02:27PM 38.5950 -82.5833 279° West 477 549 29,800 -1,680 Descending Indianapolis Center
02:28PM 38.6164 -82.7519 279° West 482 555 28,200 -1,620 Descending Indianapolis Center
02:29PM 38.6372 -82.9192 279° West 477 549 26,600 -1,620 Descending Indianapolis Center
02:30PM 38.6689 -83.0875 284° West 461 531 24,900 -2,040 Descending Indianapolis Center
02:31PM 38.7011 -83.2342 286° West 444 511 22,400 -2,580 Descending Indianapolis Center
02:32PM 38.7347 -83.3842 286° West 436 502 19,700 -2,520 Descending Indianapolis Center
02:33PM 38.7658 -83.5281 286° West 420 483 17,200 -3,180 Descending Indianapolis Center
02:34PM 38.7997 -83.6847 286° West 389 448 13,200 -3,540 Descending Indianapolis Center
02:36PM 38.8150 -83.8081 279° West 354 407 9,900 -3,060 Descending Indianapolis Center
02:37PM 38.8283 -83.9194 279° West 319 367 6,900 -1,920 Descending Indianapolis Center
02:38PM 38.8689 -84.0003 303° West 291 335 6,000 -1,260 Descending Indianapolis Center
02:39PM 38.9389 -84.0619 326° Northwest 298 343 4,300 -1,020 Descending Indianapolis Center
02:40PM 39.0075 -84.1264 324° Northwest 302 348 4,000 -180 Descending Indianapolis Center
02:41PM 39.0814 -84.1847 329° Northwest 305 351 4,000 -240 Level Indianapolis Center
02:42PM 39.1561 -84.2442 328° Northwest 309 356 3,600 -540 Descending Indianapolis Center
02:43PM 39.2175 -84.3147 318° Northwest 283 326 2,900 -480 Descending Indianapolis Center
02:44PM 39.1931 -84.3806 244° Southwest 259 298 2,700 -240 Descending Indianapolis Center